sensor_id;sensor_type;location;lat;lon;timestamp;temperature;humidity
1405;DHT22;697;51.114;6.542;2023-07-28T00:02:07;18.60;99.90
1405;DHT22;697;51.114;6.542;2023-07-28T00:04:35;18.70;99.90
1405;DHT22;697;51.114;6.542;2023-07-28T00:07:02;18.70;99.90
1405;DHT22;697;51.114;6.542;2023-07-28T00:09:29;18.70;99.90
1405;DHT22;697;51.114;6.542;2023-07-28T00:11:57;18.70;99.90
1405;DHT22;697;51.114;6.542;2023-07-28T00:14:24;18.80;99.90
1405;DHT22;697;51.114;6.542;2023-07-28T00:16:51;18.80;99.90
1405;DHT22;697;51.114;6.542;2023-07-28T00:19:19;18.80;99.90
1405;DHT22;697;51.114;6.542;2023-07-28T00:21:48;18.80;99.90
1405;DHT22;697;51.114;6.542;2023-07-28T00:24:15;18.80;99.90
1405;DHT22;697;51.114;6.542;2023-07-28T00:26:42;18.80;99.90
1405;DHT22;697;51.114;6.542;2023-07-28T00:29:09;18.80;99.90
1405;DHT22;697;51.114;6.542;2023-07-28T00:31:37;18.80;99.90
1405;DHT22;697;51.114;6.542;2023-07-28T00:34:04;18.80;99.90
1405;DHT22;697;51.114;6.542;2023-07-28T00:36:31;18.80;99.90
1405;DHT22;697;51.114;6.542;2023-07-28T00:39:02;18.80;99.90
1405;DHT22;697;51.114;6.542;2023-07-28T00:41:29;18.80;99.90
1405;DHT22;697;51.114;6.542;2023-07-28T00:43:57;18.70;99.90
1405;DHT22;697;51.114;6.542;2023-07-28T00:46:24;18.70;99.90
1405;DHT22;697;51.114;6.542;2023-07-28T00:48:52;18.80;99.90
1405;DHT22;697;51.114;6.542;2023-07-28T00:51:20;18.80;99.90
1405;DHT22;697;51.114;6.542;2023-07-28T00:53:47;18.80;99.90
1405;DHT22;697;51.114;6.542;2023-07-28T00:56:16;18.80;99.90
1405;DHT22;697;51.114;6.542;2023-07-28T00:58:43;18.90;99.90
1405;DHT22;697;51.114;6.542;2023-07-28T01:01:10;18.90;99.90
1405;DHT22;697;51.114;6.542;2023-07-28T01:03:37;18.80;99.90
1405;DHT22;697;51.114;6.542;2023-07-28T01:06:13;18.80;99.90
1405;DHT22;697;51.114;6.542;2023-07-28T01:08:46;18.80;99.90
1405;DHT22;697;51.114;6.542;2023-07-28T01:11:15;18.80;99.90
1405;DHT22;697;51.114;6.542;2023-07-28T01:13:42;18.80;99.90
1405;DHT22;697;51.114;6.542;2023-07-28T01:16:09;18.80;99.90
1405;DHT22;697;51.114;6.542;2023-07-28T01:18:36;18.80;99.90
1405;DHT22;697;51.114;6.542;2023-07-28T01:21:05;18.70;99.90
1405;DHT22;697;51.114;6.542;2023-07-28T01:23:38;18.70;99.90
1405;DHT22;697;51.114;6.542;2023-07-28T01:26:09;18.70;99.90
1405;DHT22;697;51.114;6.542;2023-07-28T01:28:39;18.70;99.90
1405;DHT22;697;51.114;6.542;2023-07-28T01:31:08;18.70;99.90
1405;DHT22;697;51.114;6.542;2023-07-28T01:33:36;18.80;99.90
1405;DHT22;697;51.114;6.542;2023-07-28T01:36:03;18.80;99.90
1405;DHT22;697;51.114;6.542;2023-07-28T01:38:30;18.80;99.90
1405;DHT22;697;51.114;6.542;2023-07-28T01:40:57;18.80;99.90
1405;DHT22;697;51.114;6.542;2023-07-28T01:43:24;18.80;99.90
1405;DHT22;697;51.114;6.542;2023-07-28T01:45:52;18.80;99.90
1405;DHT22;697;51.114;6.542;2023-07-28T01:48:19;18.80;99.90
1405;DHT22;697;51.114;6.542;2023-07-28T01:50:45;18.80;99.90
1405;DHT22;697;51.114;6.542;2023-07-28T01:53:12;18.80;99.90
1405;DHT22;697;51.114;6.542;2023-07-28T01:55:39;18.80;99.90
1405;DHT22;697;51.114;6.542;2023-07-28T01:58:06;18.80;99.90
1405;DHT22;697;51.114;6.542;2023-07-28T02:00:33;18.90;99.90
1405;DHT22;697;51.114;6.542;2023-07-28T02:03:01;18.90;99.90
1405;DHT22;697;51.114;6.542;2023-07-28T02:05:29;18.90;99.90
1405;DHT22;697;51.114;6.542;2023-07-28T02:07:55;18.80;99.90
1405;DHT22;697;51.114;6.542;2023-07-28T02:10:22;18.80;99.90
1405;DHT22;697;51.114;6.542;2023-07-28T02:12:49;18.90;99.90
1405;DHT22;697;51.114;6.542;2023-07-28T02:15:16;18.90;99.90
1405;DHT22;697;51.114;6.542;2023-07-28T02:17:43;18.90;99.90
1405;DHT22;697;51.114;6.542;2023-07-28T02:20:13;18.90;99.90
1405;DHT22;697;51.114;6.542;2023-07-28T02:22:41;18.90;99.90
1405;DHT22;697;51.114;6.542;2023-07-28T02:25:08;18.90;99.90
1405;DHT22;697;51.114;6.542;2023-07-28T02:27:35;18.90;99.90
1405;DHT22;697;51.114;6.542;2023-07-28T02:30:03;18.90;99.90
1405;DHT22;697;51.114;6.542;2023-07-28T02:32:30;18.90;99.90
1405;DHT22;697;51.114;6.542;2023-07-28T02:34:56;18.90;99.90
1405;DHT22;697;51.114;6.542;2023-07-28T02:37:25;18.90;99.90
1405;DHT22;697;51.114;6.542;2023-07-28T02:39:51;18.90;99.90
1405;DHT22;697;51.114;6.542;2023-07-28T02:42:18;18.90;99.90
1405;DHT22;697;51.114;6.542;2023-07-28T02:44:45;18.90;99.90
1405;DHT22;697;51.114;6.542;2023-07-28T02:47:12;18.90;99.90
1405;DHT22;697;51.114;6.542;2023-07-28T02:49:40;18.90;99.90
1405;DHT22;697;51.114;6.542;2023-07-28T02:52:08;18.90;99.90
1405;DHT22;697;51.114;6.542;2023-07-28T02:54:36;18.80;99.90
1405;DHT22;697;51.114;6.542;2023-07-28T02:57:03;18.90;99.90
1405;DHT22;697;51.114;6.542;2023-07-28T02:59:30;18.80;99.90
1405;DHT22;697;51.114;6.542;2023-07-28T03:01:57;18.90;99.90
1405;DHT22;697;51.114;6.542;2023-07-28T03:04:23;18.90;99.90
1405;DHT22;697;51.114;6.542;2023-07-28T03:06:50;18.80;99.90
1405;DHT22;697;51.114;6.542;2023-07-28T03:09:17;18.90;99.90
1405;DHT22;697;51.114;6.542;2023-07-28T03:11:45;18.90;99.90
1405;DHT22;697;51.114;6.542;2023-07-28T03:14:12;18.90;99.90
1405;DHT22;697;51.114;6.542;2023-07-28T03:16:39;18.80;99.90
1405;DHT22;697;51.114;6.542;2023-07-28T03:19:06;18.90;99.90
1405;DHT22;697;51.114;6.542;2023-07-28T03:21:33;18.90;99.90
1405;DHT22;697;51.114;6.542;2023-07-28T03:24:00;18.80;99.90
1405;DHT22;697;51.114;6.542;2023-07-28T03:26:26;18.90;99.90
1405;DHT22;697;51.114;6.542;2023-07-28T03:28:55;18.90;99.90
1405;DHT22;697;51.114;6.542;2023-07-28T03:31:22;18.90;99.90
1405;DHT22;697;51.114;6.542;2023-07-28T03:33:48;18.90;99.90
1405;DHT22;697;51.114;6.542;2023-07-28T03:36:15;18.80;99.90
1405;DHT22;697;51.114;6.542;2023-07-28T03:38:43;18.80;99.90
1405;DHT22;697;51.114;6.542;2023-07-28T03:41:10;18.90;99.90
1405;DHT22;697;51.114;6.542;2023-07-28T03:43:36;18.80;99.90
1405;DHT22;697;51.114;6.542;2023-07-28T03:46:04;18.90;99.90
1405;DHT22;697;51.114;6.542;2023-07-28T03:48:31;18.80;99.90
1405;DHT22;697;51.114;6.542;2023-07-28T03:50:58;18.80;99.90
1405;DHT22;697;51.114;6.542;2023-07-28T03:53:25;18.80;99.90
1405;DHT22;697;51.114;6.542;2023-07-28T03:55:52;18.80;99.90
1405;DHT22;697;51.114;6.542;2023-07-28T03:58:19;18.80;99.90
1405;DHT22;697;51.114;6.542;2023-07-28T04:00:47;18.80;99.90
1405;DHT22;697;51.114;6.542;2023-07-28T04:03:15;18.80;99.90
1405;DHT22;697;51.114;6.542;2023-07-28T04:05:41;18.80;99.90
1405;DHT22;697;51.114;6.542;2023-07-28T04:08:08;18.80;99.90
1405;DHT22;697;51.114;6.542;2023-07-28T04:10:35;18.90;99.90
1405;DHT22;697;51.114;6.542;2023-07-28T04:13:02;18.90;99.90
1405;DHT22;697;51.114;6.542;2023-07-28T04:15:29;18.90;99.90
1405;DHT22;697;51.114;6.542;2023-07-28T04:17:55;18.90;99.90
1405;DHT22;697;51.114;6.542;2023-07-28T04:20:24;18.90;99.90
1405;DHT22;697;51.114;6.542;2023-07-28T04:22:50;18.90;99.90
1405;DHT22;697;51.114;6.542;2023-07-28T04:25:17;18.90;99.90
1405;DHT22;697;51.114;6.542;2023-07-28T04:27:44;18.90;99.90
1405;DHT22;697;51.114;6.542;2023-07-28T04:30:11;18.90;99.90
1405;DHT22;697;51.114;6.542;2023-07-28T04:32:38;18.90;99.90
1405;DHT22;697;51.114;6.542;2023-07-28T04:35:06;18.90;99.90
1405;DHT22;697;51.114;6.542;2023-07-28T04:37:35;18.90;99.90
1405;DHT22;697;51.114;6.542;2023-07-28T04:40:02;19.00;99.90
1405;DHT22;697;51.114;6.542;2023-07-28T04:42:29;19.00;99.90
1405;DHT22;697;51.114;6.542;2023-07-28T04:44:55;19.10;99.90
1405;DHT22;697;51.114;6.542;2023-07-28T04:47:22;19.10;99.90
1405;DHT22;697;51.114;6.542;2023-07-28T04:49:49;19.10;99.90
1405;DHT22;697;51.114;6.542;2023-07-28T04:52:16;19.10;99.90
1405;DHT22;697;51.114;6.542;2023-07-28T04:54:44;19.10;99.90
1405;DHT22;697;51.114;6.542;2023-07-28T04:57:12;19.20;99.90
1405;DHT22;697;51.114;6.542;2023-07-28T04:59:39;19.20;99.90
1405;DHT22;697;51.114;6.542;2023-07-28T05:02:06;19.20;99.90
1405;DHT22;697;51.114;6.542;2023-07-28T05:04:33;19.20;99.90
1405;DHT22;697;51.114;6.542;2023-07-28T05:07:01;19.20;99.90
1405;DHT22;697;51.114;6.542;2023-07-28T05:09:28;19.30;99.90
1405;DHT22;697;51.114;6.542;2023-07-28T05:11:57;19.30;99.90
1405;DHT22;697;51.114;6.542;2023-07-28T05:14:23;19.30;99.90
1405;DHT22;697;51.114;6.542;2023-07-28T05:16:50;19.30;99.90
1405;DHT22;697;51.114;6.542;2023-07-28T05:19:17;19.30;99.90
1405;DHT22;697;51.114;6.542;2023-07-28T05:21:44;19.30;99.90
1405;DHT22;697;51.114;6.542;2023-07-28T05:24:10;19.30;99.90
1405;DHT22;697;51.114;6.542;2023-07-28T05:26:37;19.30;99.90
1405;DHT22;697;51.114;6.542;2023-07-28T05:29:05;19.40;99.90
1405;DHT22;697;51.114;6.542;2023-07-28T05:31:32;19.40;99.90
1405;DHT22;697;51.114;6.542;2023-07-28T05:33:59;19.40;99.90
1405;DHT22;697;51.114;6.542;2023-07-28T05:36:25;19.50;99.90
1405;DHT22;697;51.114;6.542;2023-07-28T05:38:53;19.50;99.90
1405;DHT22;697;51.114;6.542;2023-07-28T05:41:22;19.50;99.90
1405;DHT22;697;51.114;6.542;2023-07-28T05:43:49;19.50;99.90
1405;DHT22;697;51.114;6.542;2023-07-28T05:46:17;19.50;99.90
1405;DHT22;697;51.114;6.542;2023-07-28T05:48:44;19.50;99.90
1405;DHT22;697;51.114;6.542;2023-07-28T05:51:11;19.50;99.90
1405;DHT22;697;51.114;6.542;2023-07-28T05:53:37;19.50;99.90
1405;DHT22;697;51.114;6.542;2023-07-28T05:56:04;19.60;99.90
1405;DHT22;697;51.114;6.542;2023-07-28T05:58:31;19.50;99.90
1405;DHT22;697;51.114;6.542;2023-07-28T06:00:58;19.50;99.90
1405;DHT22;697;51.114;6.542;2023-07-28T06:03:26;19.50;99.90
1405;DHT22;697;51.114;6.542;2023-07-28T06:05:54;19.50;99.90
1405;DHT22;697;51.114;6.542;2023-07-28T06:08:21;19.50;99.90
1405;DHT22;697;51.114;6.542;2023-07-28T06:10:47;19.50;99.90
1405;DHT22;697;51.114;6.542;2023-07-28T06:13:14;19.60;99.90
1405;DHT22;697;51.114;6.542;2023-07-28T06:15:41;19.60;99.90
1405;DHT22;697;51.114;6.542;2023-07-28T06:18:08;19.60;99.90
1405;DHT22;697;51.114;6.542;2023-07-28T06:20:37;19.70;99.90
1405;DHT22;697;51.114;6.542;2023-07-28T06:23:04;19.80;99.90
1405;DHT22;697;51.114;6.542;2023-07-28T06:25:31;19.90;99.90
1405;DHT22;697;51.114;6.542;2023-07-28T06:27:57;19.90;99.90
1405;DHT22;697;51.114;6.542;2023-07-28T06:30:24;19.90;99.90
1405;DHT22;697;51.114;6.542;2023-07-28T06:32:51;19.90;99.90
1405;DHT22;697;51.114;6.542;2023-07-28T06:35:18;19.90;99.90
1405;DHT22;697;51.114;6.542;2023-07-28T06:37:46;19.90;99.90
1405;DHT22;697;51.114;6.542;2023-07-28T06:40:13;19.90;99.90
1405;DHT22;697;51.114;6.542;2023-07-28T06:42:40;19.90;99.90
1405;DHT22;697;51.114;6.542;2023-07-28T06:45:07;20.00;99.90
1405;DHT22;697;51.114;6.542;2023-07-28T06:47:34;20.00;99.90
1405;DHT22;697;51.114;6.542;2023-07-28T06:50:01;20.00;99.90
1405;DHT22;697;51.114;6.542;2023-07-28T06:52:28;20.00;99.90
1405;DHT22;697;51.114;6.542;2023-07-28T06:54:56;19.90;99.90
1405;DHT22;697;51.114;6.542;2023-07-28T06:57:23;19.90;99.90
1405;DHT22;697;51.114;6.542;2023-07-28T06:59:50;19.90;99.90
1405;DHT22;697;51.114;6.542;2023-07-28T07:02:17;19.90;99.90
1405;DHT22;697;51.114;6.542;2023-07-28T07:04:44;20.00;99.90
1405;DHT22;697;51.114;6.542;2023-07-28T07:07:11;19.90;99.90
1405;DHT22;697;51.114;6.542;2023-07-28T07:09:38;20.00;99.90
1405;DHT22;697;51.114;6.542;2023-07-28T07:12:08;20.00;99.90
1405;DHT22;697;51.114;6.542;2023-07-28T07:14:35;20.00;99.90
1405;DHT22;697;51.114;6.542;2023-07-28T07:17:03;20.00;99.90
1405;DHT22;697;51.114;6.542;2023-07-28T07:19:31;20.00;99.90
1405;DHT22;697;51.114;6.542;2023-07-28T07:21:58;20.00;99.90
1405;DHT22;697;51.114;6.542;2023-07-28T07:24:25;20.10;99.90
1405;DHT22;697;51.114;6.542;2023-07-28T07:26:52;20.20;99.90
1405;DHT22;697;51.114;6.542;2023-07-28T07:29:20;20.10;99.90
1405;DHT22;697;51.114;6.542;2023-07-28T07:31:47;20.20;99.90
1405;DHT22;697;51.114;6.542;2023-07-28T07:34:14;20.20;99.90
1405;DHT22;697;51.114;6.542;2023-07-28T07:36:41;20.20;99.90
1405;DHT22;697;51.114;6.542;2023-07-28T07:39:08;20.20;99.90
1405;DHT22;697;51.114;6.542;2023-07-28T07:41:34;20.20;99.90
1405;DHT22;697;51.114;6.542;2023-07-28T07:44:01;20.30;99.90
1405;DHT22;697;51.114;6.542;2023-07-28T07:46:29;20.40;99.90
1405;DHT22;697;51.114;6.542;2023-07-28T07:48:56;20.40;99.90
1405;DHT22;697;51.114;6.542;2023-07-28T07:51:23;20.50;99.90
1405;DHT22;697;51.114;6.542;2023-07-28T07:53:52;20.50;99.90
1405;DHT22;697;51.114;6.542;2023-07-28T07:56:20;20.40;99.90
1405;DHT22;697;51.114;6.542;2023-07-28T07:58:47;20.40;99.90
1405;DHT22;697;51.114;6.542;2023-07-28T08:01:14;20.40;99.90
1405;DHT22;697;51.114;6.542;2023-07-28T08:03:43;20.50;99.90
1405;DHT22;697;51.114;6.542;2023-07-28T08:06:11;20.40;99.90
1405;DHT22;697;51.114;6.542;2023-07-28T08:08:40;20.50;99.90
1405;DHT22;697;51.114;6.542;2023-07-28T08:11:07;20.50;99.90
1405;DHT22;697;51.114;6.542;2023-07-28T08:13:34;20.50;99.90
1405;DHT22;697;51.114;6.542;2023-07-28T08:16:01;20.60;99.90
1405;DHT22;697;51.114;6.542;2023-07-28T08:18:29;20.60;99.90
1405;DHT22;697;51.114;6.542;2023-07-28T08:20:57;20.80;99.90
1405;DHT22;697;51.114;6.542;2023-07-28T08:23:25;20.80;99.90
1405;DHT22;697;51.114;6.542;2023-07-28T08:25:52;20.90;99.90
1405;DHT22;697;51.114;6.542;2023-07-28T08:28:19;21.00;99.90
1405;DHT22;697;51.114;6.542;2023-07-28T08:30:54;21.10;99.90
1405;DHT22;697;51.114;6.542;2023-07-28T08:33:23;21.10;99.90
1405;DHT22;697;51.114;6.542;2023-07-28T08:35:49;21.10;99.90
1405;DHT22;697;51.114;6.542;2023-07-28T08:38:17;21.20;99.90
1405;DHT22;697;51.114;6.542;2023-07-28T08:40:44;21.30;99.90
1405;DHT22;697;51.114;6.542;2023-07-28T08:43:11;21.40;99.90
1405;DHT22;697;51.114;6.542;2023-07-28T08:45:39;21.50;99.90
1405;DHT22;697;51.114;6.542;2023-07-28T08:48:06;21.70;99.90
1405;DHT22;697;51.114;6.542;2023-07-28T08:50:35;21.90;99.90
1405;DHT22;697;51.114;6.542;2023-07-28T08:53:03;22.00;99.90
1405;DHT22;697;51.114;6.542;2023-07-28T08:55:31;22.20;99.90
1405;DHT22;697;51.114;6.542;2023-07-28T08:58:13;22.30;99.90
1405;DHT22;697;51.114;6.542;2023-07-28T09:00:41;22.40;99.90
1405;DHT22;697;51.114;6.542;2023-07-28T09:03:09;22.50;99.90
1405;DHT22;697;51.114;6.542;2023-07-28T09:05:37;22.60;99.90
1405;DHT22;697;51.114;6.542;2023-07-28T09:08:06;22.70;99.90
1405;DHT22;697;51.114;6.542;2023-07-28T09:10:45;22.90;99.90
1405;DHT22;697;51.114;6.542;2023-07-28T09:13:16;22.90;99.90
1405;DHT22;697;51.114;6.542;2023-07-28T09:15:43;22.80;99.90
1405;DHT22;697;51.114;6.542;2023-07-28T09:18:12;22.90;99.90
1405;DHT22;697;51.114;6.542;2023-07-28T09:20:42;23.00;99.90
1405;DHT22;697;51.114;6.542;2023-07-28T09:23:10;23.00;99.90
1405;DHT22;697;51.114;6.542;2023-07-28T09:25:39;22.90;99.90
1405;DHT22;697;51.114;6.542;2023-07-28T09:28:07;23.00;99.90
1405;DHT22;697;51.114;6.542;2023-07-28T09:30:49;23.10;99.90
1405;DHT22;697;51.114;6.542;2023-07-28T09:33:29;23.40;99.90
1405;DHT22;697;51.114;6.542;2023-07-28T09:35:56;23.60;99.90
1405;DHT22;697;51.114;6.542;2023-07-28T09:38:27;23.70;99.90
1405;DHT22;697;51.114;6.542;2023-07-28T09:40:57;24.00;99.90
1405;DHT22;697;51.114;6.542;2023-07-28T09:43:26;24.40;99.90
1405;DHT22;697;51.114;6.542;2023-07-28T09:45:53;24.70;99.20
1405;DHT22;697;51.114;6.542;2023-07-28T09:48:31;24.70;97.40
1405;DHT22;697;51.114;6.542;2023-07-28T09:51:01;24.90;97.20
1405;DHT22;697;51.114;6.542;2023-07-28T09:53:32;24.90;96.70
1405;DHT22;697;51.114;6.542;2023-07-28T09:56:04;24.80;96.30
1405;DHT22;697;51.114;6.542;2023-07-28T09:58:38;24.70;96.70
1405;DHT22;697;51.114;6.542;2023-07-28T10:01:12;24.70;96.50
1405;DHT22;697;51.114;6.542;2023-07-28T10:03:41;24.60;97.50
1405;DHT22;697;51.114;6.542;2023-07-28T10:06:09;24.80;97.90
1405;DHT22;697;51.114;6.542;2023-07-28T10:08:38;24.90;96.70
1405;DHT22;697;51.114;6.542;2023-07-28T10:11:06;24.90;97.50
1405;DHT22;697;51.114;6.542;2023-07-28T10:13:42;25.20;96.80
1405;DHT22;697;51.114;6.542;2023-07-28T10:16:10;25.20;95.70
1405;DHT22;697;51.114;6.542;2023-07-28T10:18:37;25.30;96.10
1405;DHT22;697;51.114;6.542;2023-07-28T10:21:08;25.30;96.00
1405;DHT22;697;51.114;6.542;2023-07-28T10:23:38;25.10;96.30
1405;DHT22;697;51.114;6.542;2023-07-28T10:26:06;25.10;96.80
1405;DHT22;697;51.114;6.542;2023-07-28T10:28:35;25.10;96.90
1405;DHT22;697;51.114;6.542;2023-07-28T10:31:07;25.10;96.10
1405;DHT22;697;51.114;6.542;2023-07-28T10:33:37;25.30;96.50
1405;DHT22;697;51.114;6.542;2023-07-28T10:36:33;25.30;95.00
1405;DHT22;697;51.114;6.542;2023-07-28T10:39:12;25.40;95.00
1405;DHT22;697;51.114;6.542;2023-07-28T10:42:03;25.30;95.40
1405;DHT22;697;51.114;6.542;2023-07-28T10:44:32;25.40;93.80
1405;DHT22;697;51.114;6.542;2023-07-28T10:47:10;25.50;94.40
1405;DHT22;697;51.114;6.542;2023-07-28T10:49:37;25.80;94.20
1405;DHT22;697;51.114;6.542;2023-07-28T10:52:04;26.30;93.10
1405;DHT22;697;51.114;6.542;2023-07-28T10:54:31;26.90;90.80
1405;DHT22;697;51.114;6.542;2023-07-28T10:57:01;27.10;88.10
1405;DHT22;697;51.114;6.542;2023-07-28T10:59:28;27.50;87.50
1405;DHT22;697;51.114;6.542;2023-07-28T11:01:56;27.50;87.20
1405;DHT22;697;51.114;6.542;2023-07-28T11:04:24;27.40;85.60
1405;DHT22;697;51.114;6.542;2023-07-28T11:06:51;27.40;87.30
1405;DHT22;697;51.114;6.542;2023-07-28T11:09:22;27.50;90.10
1405;DHT22;697;51.114;6.542;2023-07-28T11:11:50;28.30;90.50
1405;DHT22;697;51.114;6.542;2023-07-28T11:14:18;29.40;85.30
1405;DHT22;697;51.114;6.542;2023-07-28T11:16:46;30.40;77.20
1405;DHT22;697;51.114;6.542;2023-07-28T11:19:13;31.10;70.40
1405;DHT22;697;51.114;6.542;2023-07-28T11:21:44;31.90;69.80
1405;DHT22;697;51.114;6.542;2023-07-28T11:24:18;31.70;61.40
1405;DHT22;697;51.114;6.542;2023-07-28T11:26:45;31.90;62.40
1405;DHT22;697;51.114;6.542;2023-07-28T11:29:13;32.60;59.20
1405;DHT22;697;51.114;6.542;2023-07-28T11:31:41;32.70;58.20
1405;DHT22;697;51.114;6.542;2023-07-28T11:34:13;32.70;56.30
1405;DHT22;697;51.114;6.542;2023-07-28T11:36:41;31.70;57.00
1405;DHT22;697;51.114;6.542;2023-07-28T11:39:12;31.50;56.90
1405;DHT22;697;51.114;6.542;2023-07-28T11:41:42;31.30;59.20
1405;DHT22;697;51.114;6.542;2023-07-28T11:44:09;31.40;57.20
1405;DHT22;697;51.114;6.542;2023-07-28T11:46:39;30.80;58.80
1405;DHT22;697;51.114;6.542;2023-07-28T11:49:09;30.20;62.50
1405;DHT22;697;51.114;6.542;2023-07-28T11:51:38;29.50;64.60
1405;DHT22;697;51.114;6.542;2023-07-28T11:54:06;28.80;66.20
1405;DHT22;697;51.114;6.542;2023-07-28T11:56:34;28.20;69.20
1405;DHT22;697;51.114;6.542;2023-07-28T11:59:03;27.90;72.90
1405;DHT22;697;51.114;6.542;2023-07-28T12:01:31;27.90;75.20
1405;DHT22;697;51.114;6.542;2023-07-28T12:03:58;27.90;76.40
1405;DHT22;697;51.114;6.542;2023-07-28T12:06:27;27.80;73.80
1405;DHT22;697;51.114;6.542;2023-07-28T12:09:06;27.50;74.10
1405;DHT22;697;51.114;6.542;2023-07-28T12:11:37;27.40;76.80
1405;DHT22;697;51.114;6.542;2023-07-28T12:14:11;27.20;76.50
1405;DHT22;697;51.114;6.542;2023-07-28T12:16:40;26.90;79.40
1405;DHT22;697;51.114;6.542;2023-07-28T12:19:08;26.70;81.20
1405;DHT22;697;51.114;6.542;2023-07-28T12:21:35;26.60;83.40
1405;DHT22;697;51.114;6.542;2023-07-28T12:24:03;27.10;83.40
1405;DHT22;697;51.114;6.542;2023-07-28T12:26:30;27.60;80.10
1405;DHT22;697;51.114;6.542;2023-07-28T12:28:58;27.90;79.40
1405;DHT22;697;51.114;6.542;2023-07-28T12:31:26;28.00;78.00
1405;DHT22;697;51.114;6.542;2023-07-28T12:33:53;27.90;77.90
1405;DHT22;697;51.114;6.542;2023-07-28T12:36:20;27.70;79.30
1405;DHT22;697;51.114;6.542;2023-07-28T12:38:48;27.40;80.50
1405;DHT22;697;51.114;6.542;2023-07-28T12:41:15;26.90;81.50
1405;DHT22;697;51.114;6.542;2023-07-28T12:43:41;26.50;84.30
1405;DHT22;697;51.114;6.542;2023-07-28T12:46:10;26.00;89.80
1405;DHT22;697;51.114;6.542;2023-07-28T12:48:37;25.60;92.00
1405;DHT22;697;51.114;6.542;2023-07-28T12:51:04;25.20;93.20
1405;DHT22;697;51.114;6.542;2023-07-28T12:53:31;24.90;95.30
1405;DHT22;697;51.114;6.542;2023-07-28T12:56:00;24.80;95.80
1405;DHT22;697;51.114;6.542;2023-07-28T12:58:26;24.80;96.20
1405;DHT22;697;51.114;6.542;2023-07-28T13:00:53;24.70;96.20
1405;DHT22;697;51.114;6.542;2023-07-28T13:03:26;24.60;96.60
1405;DHT22;697;51.114;6.542;2023-07-28T13:05:56;24.70;97.20
1405;DHT22;697;51.114;6.542;2023-07-28T13:08:24;25.10;97.30
1405;DHT22;697;51.114;6.542;2023-07-28T13:10:57;25.40;97.50
1405;DHT22;697;51.114;6.542;2023-07-28T13:13:25;25.80;96.20
1405;DHT22;697;51.114;6.542;2023-07-28T13:15:54;26.10;95.40
1405;DHT22;697;51.114;6.542;2023-07-28T13:18:21;26.40;94.60
1405;DHT22;697;51.114;6.542;2023-07-28T13:20:50;26.60;94.70
1405;DHT22;697;51.114;6.542;2023-07-28T13:23:19;26.80;94.30
1405;DHT22;697;51.114;6.542;2023-07-28T13:25:47;27.00;93.50
1405;DHT22;697;51.114;6.542;2023-07-28T13:28:13;27.10;92.90
1405;DHT22;697;51.114;6.542;2023-07-28T13:30:42;27.10;93.10
1405;DHT22;697;51.114;6.542;2023-07-28T13:33:09;27.10;92.00
1405;DHT22;697;51.114;6.542;2023-07-28T13:35:43;26.80;91.50
1405;DHT22;697;51.114;6.542;2023-07-28T13:38:11;26.60;92.50
1405;DHT22;697;51.114;6.542;2023-07-28T13:40:38;26.30;93.20
1405;DHT22;697;51.114;6.542;2023-07-28T13:43:04;26.30;94.30
1405;DHT22;697;51.114;6.542;2023-07-28T13:45:31;26.20;93.60
1405;DHT22;697;51.114;6.542;2023-07-28T13:47:58;26.10;94.10
1405;DHT22;697;51.114;6.542;2023-07-28T13:50:25;25.90;94.40
1405;DHT22;697;51.114;6.542;2023-07-28T13:52:52;25.50;95.20
1405;DHT22;697;51.114;6.542;2023-07-28T13:55:21;25.10;96.40
1405;DHT22;697;51.114;6.542;2023-07-28T13:57:48;24.90;97.10
1405;DHT22;697;51.114;6.542;2023-07-28T14:00:15;24.50;97.80
1405;DHT22;697;51.114;6.542;2023-07-28T14:02:42;24.30;99.00
1405;DHT22;697;51.114;6.542;2023-07-28T14:05:09;24.30;99.80
1405;DHT22;697;51.114;6.542;2023-07-28T14:07:36;24.20;99.50
1405;DHT22;697;51.114;6.542;2023-07-28T14:10:03;24.20;99.60
1405;DHT22;697;51.114;6.542;2023-07-28T14:12:32;24.30;99.60
1405;DHT22;697;51.114;6.542;2023-07-28T14:14:59;24.70;99.40
1405;DHT22;697;51.114;6.542;2023-07-28T14:17:26;25.00;98.70
1405;DHT22;697;51.114;6.542;2023-07-28T14:19:54;25.40;97.30
1405;DHT22;697;51.114;6.542;2023-07-28T14:22:26;25.60;96.60
1405;DHT22;697;51.114;6.542;2023-07-28T14:24:53;25.90;96.80
1405;DHT22;697;51.114;6.542;2023-07-28T14:27:19;26.00;95.90
1405;DHT22;697;51.114;6.542;2023-07-28T14:29:59;25.90;95.10
1405;DHT22;697;51.114;6.542;2023-07-28T14:32:27;25.90;96.00
1405;DHT22;697;51.114;6.542;2023-07-28T14:34:54;26.10;96.30
1405;DHT22;697;51.114;6.542;2023-07-28T14:37:22;26.40;96.10
1405;DHT22;697;51.114;6.542;2023-07-28T14:39:50;26.60;95.70
1405;DHT22;697;51.114;6.542;2023-07-28T14:42:18;26.80;94.60
1405;DHT22;697;51.114;6.542;2023-07-28T14:44:45;26.90;92.90
1405;DHT22;697;51.114;6.542;2023-07-28T14:47:15;26.70;93.50
1405;DHT22;697;51.114;6.542;2023-07-28T14:49:44;26.50;93.00
1405;DHT22;697;51.114;6.542;2023-07-28T14:52:11;26.20;93.70
1405;DHT22;697;51.114;6.542;2023-07-28T14:54:39;25.90;93.90
1405;DHT22;697;51.114;6.542;2023-07-28T14:57:07;25.50;95.30
1405;DHT22;697;51.114;6.542;2023-07-28T14:59:39;25.20;95.60
1405;DHT22;697;51.114;6.542;2023-07-28T15:02:06;24.80;95.70
1405;DHT22;697;51.114;6.542;2023-07-28T15:04:34;24.50;97.00
1405;DHT22;697;51.114;6.542;2023-07-28T15:07:01;24.30;98.00
1405;DHT22;697;51.114;6.542;2023-07-28T15:09:28;24.00;98.70
1405;DHT22;697;51.114;6.542;2023-07-28T15:11:55;23.90;99.90
1405;DHT22;697;51.114;6.542;2023-07-28T15:14:21;23.80;99.90
1405;DHT22;697;51.114;6.542;2023-07-28T15:16:48;23.70;99.90
1405;DHT22;697;51.114;6.542;2023-07-28T15:19:15;23.70;99.90
1405;DHT22;697;51.114;6.542;2023-07-28T15:21:43;23.70;99.90
1405;DHT22;697;51.114;6.542;2023-07-28T15:24:11;23.90;99.90
1405;DHT22;697;51.114;6.542;2023-07-28T15:26:39;24.00;99.90
1405;DHT22;697;51.114;6.542;2023-07-28T15:29:06;24.20;99.90
1405;DHT22;697;51.114;6.542;2023-07-28T15:31:33;24.30;99.90
1405;DHT22;697;51.114;6.542;2023-07-28T15:34:00;24.50;99.80
1405;DHT22;697;51.114;6.542;2023-07-28T15:36:26;24.80;99.90
1405;DHT22;697;51.114;6.542;2023-07-28T15:38:54;25.50;98.50
1405;DHT22;697;51.114;6.542;2023-07-28T15:41:22;26.60;97.60
1405;DHT22;697;51.114;6.542;2023-07-28T15:43:49;27.80;93.60
1405;DHT22;697;51.114;6.542;2023-07-28T15:46:16;28.70;89.40
1405;DHT22;697;51.114;6.542;2023-07-28T15:48:43;29.60;86.00
1405;DHT22;697;51.114;6.542;2023-07-28T15:51:12;30.60;80.70
1405;DHT22;697;51.114;6.542;2023-07-28T15:53:38;31.80;74.60
1405;DHT22;697;51.114;6.542;2023-07-28T15:56:07;32.90;65.20
1405;DHT22;697;51.114;6.542;2023-07-28T15:58:33;33.60;61.20
1405;DHT22;697;51.114;6.542;2023-07-28T16:01:00;34.20;59.50
1405;DHT22;697;51.114;6.542;2023-07-28T16:03:27;34.70;55.30
1405;DHT22;697;51.114;6.542;2023-07-28T16:05:53;35.20;54.60
1405;DHT22;697;51.114;6.542;2023-07-28T16:08:20;35.40;51.00
1405;DHT22;697;51.114;6.542;2023-07-28T16:10:47;35.70;50.80
1405;DHT22;697;51.114;6.542;2023-07-28T16:13:15;35.50;49.70
1405;DHT22;697;51.114;6.542;2023-07-28T16:15:42;35.50;51.20
1405;DHT22;697;51.114;6.542;2023-07-28T16:18:08;35.50;50.50
1405;DHT22;697;51.114;6.542;2023-07-28T16:20:36;35.40;48.30
1405;DHT22;697;51.114;6.542;2023-07-28T16:23:03;34.80;48.20